Time;durP1;ratioP1;P1;durP2;ratioP2;P2;SDS_P1;SDS_P2;PMS_P1;PMS_P2;Temp;Humidity;BMP_temperature;BMP_pressure;BME280_temperature;BME280_humidity;BME280_pressure;Samples;Min_cycle;Max_cycle;Signal;HPM_P1;HPM_P2
2020/12/26 00:01:36;;;;;;;14.45;8.93;;;;;;;1.83;81.30;99708.97;6058587;23;20195;-82
2020/12/26 00:04:03;;;;;;;14.13;8.52;;;;;;;1.65;82.29;99711.13;6081428;23;20207;-83
2020/12/26 00:06:29;;;;;;;16.48;9.85;;;;;;;1.50;82.71;99714.09;6082014;23;20266;-82
2020/12/26 00:08:55;;;;;;;15.73;10.27;;;;;;;1.37;83.39;99721.41;6076949;23;20267;-83
2020/12/26 00:11:22;;;;;;;14.55;9.75;;;;;;;1.20;84.27;99727.94;6116498;23;20206;-83
2020/12/26 00:13:51;;;;;;;14.38;9.43;;;;;;;1.40;84.26;99721.34;6088444;23;20223;-82
2020/12/26 00:16:18;;;;;;;13.32;9.02;;;;;;;1.69;83.40;99732.22;6069098;23;20380;-81
2020/12/26 00:18:45;;;;;;;14.55;10.23;;;;;;;1.75;82.69;99728.59;6091777;23;20727;-80
2020/12/26 00:21:14;;;;;;;16.58;11.13;;;;;;;1.68;83.32;99732.28;6064595;23;20200;-82
2020/12/26 00:23:43;;;;;;;16.90;10.18;;;;;;;1.67;83.63;99734.03;6046016;23;20204;-81
2020/12/26 00:26:09;;;;;;;16.88;11.05;;;;;;;1.74;83.45;99735.66;6071530;23;20231;-82
2020/12/26 00:28:37;;;;;;;18.13;10.98;;;;;;;1.66;83.92;99737.59;6073647;23;20156;-80
2020/12/26 00:31:03;;;;;;;23.63;11.50;;;;;;;1.55;83.95;99733.44;6072099;23;20191;-80
2020/12/26 00:33:32;;;;;;;19.38;10.57;;;;;;;1.69;83.98;99739.31;6090630;23;20203;-82
2020/12/26 00:36:01;;;;;;;17.15;10.15;;;;;;;1.62;83.67;99735.06;6074683;23;20207;-81
2020/12/26 00:38:27;;;;;;;16.80;10.02;;;;;;;1.36;84.69;99726.75;6103774;23;20204;-81
2020/12/26 00:40:53;;;;;;;18.52;11.80;;;;;;;1.26;85.56;99735.75;6086332;23;20159;-82
2020/12/26 00:43:19;;;;;;;18.45;10.98;;;;;;;1.53;84.84;99733.44;6112275;23;20266;-84
2020/12/26 00:45:45;;;;;;;19.60;10.65;;;;;;;1.44;84.72;99743.38;6083789;23;20216;-85
2020/12/26 00:48:11;;;;;;;17.52;11.65;;;;;;;1.62;84.42;99745.66;6097374;23;20264;-81
2020/12/26 00:50:38;;;;;;;15.98;11.13;;;;;;;1.68;84.31;99742.88;6057609;23;20204;-83
2020/12/26 00:53:04;;;;;;;18.58;11.02;;;;;;;1.75;84.13;99737.41;6053265;23;20376;-83
2020/12/26 00:55:33;;;;;;;17.45;11.25;;;;;;;1.75;84.21;99736.53;6078160;23;20568;-83
2020/12/26 00:57:59;;;;;;;25.08;12.68;;;;;;;1.64;84.69;99742.06;6054162;23;20210;-83
2020/12/26 01:00:26;;;;;;;18.23;11.27;;;;;;;1.80;84.08;99742.63;6074850;23;20211;-85
2020/12/26 01:03:04;;;;;;;17.60;11.00;;;;;;;1.75;83.50;99740.03;6078963;23;20211;-85
2020/12/26 01:05:34;;;;;;;17.75;11.75;;;;;;;1.41;84.38;99728.41;6097256;23;20239;-85
2020/12/26 01:08:01;;;;;;;18.10;11.90;;;;;;;1.70;84.75;99749.91;6076780;23;20187;-86
2020/12/26 01:10:27;;;;;;;23.10;11.75;;;;;;;1.60;84.64;99740.38;6079038;23;20170;-85
2020/12/26 01:12:53;;;;;;;19.25;12.02;;;;;;;1.45;85.30;99738.03;6078732;23;20203;-86
2020/12/26 01:15:19;;;;;;;19.70;11.90;;;;;;;1.45;85.25;99738.03;6111259;23;20197;-82
2020/12/26 01:17:45;;;;;;;16.90;11.35;;;;;;;1.69;84.44;99732.22;6094554;23;20211;-85
2020/12/26 01:20:19;;;;;;;24.50;11.20;;;;;;;1.35;84.86;99744.41;6081202;23;20381;-84
2020/12/26 01:22:48;;;;;;;18.55;12.23;;;;;;;1.26;85.32;99744.59;6072372;23;20191;-84
2020/12/26 01:25:14;;;;;;;20.73;11.48;;;;;;;1.18;85.08;99753.59;6065554;23;20238;-85
2020/12/26 01:27:40;;;;;;;17.55;11.80;;;;;;;1.38;85.35;99760.25;6068400;23;20203;-85
2020/12/26 01:30:07;;;;;;;21.90;11.43;;;;;;;1.36;84.75;99766.50;6090496;23;20207;-83
2020/12/26 01:32:33;;;;;;;16.05;10.50;;;;;;;1.22;84.83;99769.38;6058240;23;20231;-85
2020/12/26 01:35:00;;;;;;;17.88;11.45;;;;;;;1.18;85.36;99775.66;6041621;23;20175;-84
2020/12/26 01:37:27;;;;;;;19.30;12.15;;;;;;;1.21;85.59;99778.22;6069892;23;20195;-84
2020/12/26 01:39:54;;;;;;;16.75;11.00;;;;;;;1.28;85.63;99782.50;6090042;23;20212;-85
2020/12/26 01:42:20;;;;;;;18.60;13.13;;;;;;;1.40;85.16;99770.81;6064630;23;20294;-85
2020/12/26 01:44:47;;;;;;;20.60;12.30;;;;;;;1.35;85.49;99768.25;6043181;23;20669;-85
2020/12/26 01:47:15;;;;;;;19.65;12.82;;;;;;;1.37;85.28;99766.44;6043122;23;20211;-85
2020/12/26 01:49:42;;;;;;;18.40;11.60;;;;;;;1.30;85.48;99764.81;6051149;23;20251;-85
2020/12/26 01:52:10;;;;;;;16.10;10.85;;;;;;;1.28;85.87;99760.47;6093678;23;20208;-85
2020/12/26 01:54:37;;;;;;;18.73;11.10;;;;;;;1.24;85.82;99759.63;6069358;23;20212;-85
2020/12/26 01:57:04;;;;;;;17.05;11.20;;;;;;;1.29;85.71;99759.56;6059389;23;20291;-85
2020/12/26 01:59:30;;;;;;;19.65;12.10;;;;;;;1.13;85.74;99772.22;6089998;23;20756;-85
2020/12/26 02:01:57;;;;;;;19.80;12.05;;;;;;;0.87;86.80;99774.44;6065356;23;20191;-85
2020/12/26 02:04:24;;;;;;;23.83;12.82;;;;;;;0.84;87.12;99776.28;6096890;23;20198;-83
2020/12/26 02:06:57;;;;;;;20.42;12.43;;;;;;;0.68;87.65;99783.59;6090933;23;20211;-85
2020/12/26 02:09:24;;;;;;;23.88;13.93;;;;;;;0.66;88.19;99784.50;6041585;23;20208;-85
2020/12/26 02:11:50;;;;;;;25.58;14.07;;;;;;;0.54;87.95;99789.97;6045770;23;20204;-84
2020/12/26 02:14:17;;;;;;;17.48;11.52;;;;;;;0.46;88.18;99794.53;6091720;23;20200;-85
2020/12/26 02:16:49;;;;;;;18.75;10.10;;;;;;;0.48;88.18;99801.53;6088876;23;20172;-81
2020/12/26 02:19:20;;;;;;;17.65;10.85;;;;;;;0.61;88.51;99803.09;6097397;23;20201;-85
2020/12/26 02:21:47;;;;;;;19.88;12.93;;;;;;;0.67;88.96;99803.00;6098655;23;20205;-82
2020/12/26 02:24:14;;;;;;;17.75;12.10;;;;;;;0.77;89.20;99798.44;6103995;23;20194;-83
2020/12/26 02:26:41;;;;;;;17.45;12.13;;;;;;;0.82;88.82;99805.41;6069982;23;20188;-82
2020/12/26 02:29:08;;;;;;;18.30;13.02;;;;;;;0.83;89.00;99793.91;6046034;23;20144;-83
2020/12/26 02:31:35;;;;;;;15.02;11.32;;;;;;;0.86;88.89;99799.19;6077129;23;20157;-84
2020/12/26 02:34:03;;;;;;;16.13;11.15;;;;;;;0.96;89.11;99795.44;6094610;23;20242;-83
2020/12/26 02:36:29;;;;;;;22.63;15.20;;;;;;;1.00;88.21;99797.16;6120523;23;20248;-83
2020/12/26 02:38:55;;;;;;;17.92;13.75;;;;;;;1.03;88.12;99797.09;6111512;23;20245;-84
2020/12/26 02:41:21;;;;;;;16.83;10.90;;;;;;;1.05;87.65;99797.94;6040154;23;20211;-84
2020/12/26 02:43:49;;;;;;;14.95;11.10;;;;;;;1.04;86.73;99790.03;6065376;23;20175;-85
2020/12/26 02:46:15;;;;;;;15.40;11.00;;;;;;;1.05;86.52;99794.44;6040936;23;20222;-85
2020/12/26 02:48:42;;;;;;;16.65;9.98;;;;;;;1.07;86.39;99795.25;6061477;23;20208;-85
2020/12/26 02:51:08;;;;;;;13.27;9.40;;;;;;;1.11;86.42;99800.47;6080489;23;20278;-84
2020/12/26 02:53:35;;;;;;;14.95;8.75;;;;;;;1.13;85.89;99790.75;6089751;23;20573;-84
2020/12/26 02:56:03;;;;;;;14.23;8.93;;;;;;;1.18;85.40;99807.44;6068246;23;20202;-85
2020/12/26 02:58:29;;;;;;;14.02;9.15;;;;;;;1.24;84.71;99796.72;6080037;23;20183;-85
2020/12/26 03:00:55;;;;;;;11.18;8.30;;;;;;;1.26;84.82;99794.03;6081667;23;20214;-84
2020/12/26 03:03:21;;;;;;;12.65;8.35;;;;;;;1.20;84.62;99787.09;6062088;23;20239;-84
2020/12/26 03:05:47;;;;;;;12.55;8.65;;;;;;;1.24;84.28;99783.47;6107902;23;20263;-84
2020/12/26 03:08:13;;;;;;;12.57;9.25;;;;;;;1.28;84.15;99781.66;6106830;23;20210;-85
2020/12/26 03:10:39;;;;;;;17.77;11.60;;;;;;;1.19;84.22;99790.66;6075253;23;20187;-84
2020/12/26 03:13:05;;;;;;;18.17;11.50;;;;;;;1.23;84.28;99789.66;6075842;23;20226;-85
2020/12/26 03:15:31;;;;;;;15.23;10.05;;;;;;;1.18;83.85;99785.38;6075439;23;20217;-85
2020/12/26 03:17:57;;;;;;;14.07;9.60;;;;;;;1.16;84.18;99781.88;6071239;23;20207;-85
2020/12/26 03:20:23;;;;;;;14.50;8.77;;;;;;;1.14;83.95;99787.19;6053173;23;20207;-85
2020/12/26 03:22:49;;;;;;;13.57;9.63;;;;;;;1.12;83.83;99783.72;6088642;23;20213;-83
2020/12/26 03:25:16;;;;;;;15.77;8.57;;;;;;;1.08;83.59;99779.34;6064359;23;20211;-83
2020/12/26 03:27:42;;;;;;;15.40;9.60;;;;;;;1.15;83.62;99786.28;6094647;23;20219;-83
2020/12/26 03:30:08;;;;;;;20.77;10.95;;;;;;;1.27;83.11;99796.66;6082398;23;20372;-84
2020/12/26 03:32:34;;;;;;;14.73;9.30;;;;;;;1.22;83.61;99782.63;6080254;23;20207;-84
2020/12/26 03:35:01;;;;;;;19.67;10.13;;;;;;;1.27;83.68;99785.19;6107142;23;20163;-85
2020/12/26 03:37:26;;;;;;;16.92;9.80;;;;;;;1.29;83.44;99794.84;6100351;23;20195;-85
2020/12/26 03:39:53;;;;;;;14.20;9.05;;;;;;;1.28;83.33;99793.13;6071783;23;20222;-85
2020/12/26 03:42:44;;;;;;;14.02;10.60;;;;;;;1.37;83.31;99792.94;6084406;23;20235;-84
2020/12/26 03:45:12;;;;;;;14.57;9.93;;;;;;;1.40;83.16;99797.31;6050003;23;20213;-85
2020/12/26 03:47:38;;;;;;;14.18;10.18;;;;;;;1.44;83.43;99797.25;6071187;23;20203;-84
2020/12/26 03:50:04;;;;;;;14.50;9.65;;;;;;;1.46;82.99;99792.78;6075351;23;20191;-84
2020/12/26 03:52:30;;;;;;;13.35;9.48;;;;;;;1.84;82.17;99790.25;6050046;23;20488;-84
2020/12/26 03:54:56;;;;;;;14.13;9.93;;;;;;;1.70;81.42;99797.63;6051374;23;20207;-85
2020/12/26 03:57:22;;;;;;;14.10;9.10;;;;;;;1.55;82.22;99795.25;6051594;23;20215;-85
2020/12/26 03:59:49;;;;;;;13.00;10.30;;;;;;;1.56;82.40;99789.03;6056329;23;20293;-85
2020/12/26 04:02:15;;;;;;;12.73;9.80;;;;;;;1.57;82.56;99796.09;6090436;23;20227;-85
2020/12/26 04:04:41;;;;;;;14.95;9.85;;;;;;;1.54;82.78;99793.50;6094905;23;20192;-83
2020/12/26 04:07:07;;;;;;;14.07;8.85;;;;;;;1.60;82.72;99796.03;6042184;23;20227;-84
2020/12/26 04:09:33;;;;;;;16.27;9.68;;;;;;;1.57;82.31;99795.22;6066620;23;20574;-84
2020/12/26 04:11:59;;;;;;;12.80;8.48;;;;;;;1.54;82.39;99798.81;6064353;23;20224;-84
2020/12/26 04:14:25;;;;;;;12.57;8.80;;;;;;;1.56;82.31;99786.38;6066956;23;20273;-84
2020/12/26 04:16:59;;;;;;;16.00;9.15;;;;;;;1.63;82.75;99789.81;6068437;23;20279;-83
2020/12/26 04:19:26;;;;;;;14.98;8.68;;;;;;;1.63;82.21;99789.81;6073358;23;20204;-85
2020/12/26 04:22:04;;;;;;;13.57;8.80;;;;;;;1.67;82.32;99784.41;6067895;23;20204;-84
2020/12/26 04:24:30;;;;;;;11.60;8.40;;;;;;;1.66;82.12;99792.38;6063015;23;20227;-85
2020/12/26 04:26:56;;;;;;;14.02;9.48;;;;;;;1.77;81.87;99783.34;6056021;23;20212;-85
2020/12/26 04:29:23;;;;;;;13.07;8.48;;;;;;;1.80;82.09;99782.41;6066168;23;20262;-85
2020/12/26 04:31:50;;;;;;;14.77;9.65;;;;;;;1.80;81.73;99777.94;6049613;23;20215;-84
2020/12/26 04:34:17;;;;;;;16.75;10.98;;;;;;;1.78;81.92;99778.88;6067176;23;20208;-85
2020/12/26 04:36:43;;;;;;;14.18;9.77;;;;;;;1.73;81.68;99771.03;6092246;23;20211;-85
2020/12/26 04:39:09;;;;;;;16.15;10.07;;;;;;;1.72;82.39;99766.63;6086010;23;20202;-83
2020/12/26 04:41:36;;;;;;;12.13;9.05;;;;;;;1.71;82.16;99766.66;6071549;23;20216;-86
2020/12/26 04:44:03;;;;;;;13.77;9.55;;;;;;;1.65;82.22;99761.47;6043718;23;20172;-85
2020/12/26 04:46:34;;;;;;;20.15;10.82;;;;;;;1.61;82.10;99760.66;6072249;23;20645;-85
2020/12/26 04:49:06;;;;;;;17.50;10.63;;;;;;;1.60;82.48;99769.53;6067274;23;20218;-84
2020/12/26 04:51:34;;;;;;;12.02;8.95;;;;;;;1.63;82.20;99769.50;6049036;23;20278;-85
2020/12/26 04:54:06;;;;;;;18.70;11.00;;;;;;;1.53;82.41;99778.50;6090434;23;20203;-84
2020/12/26 04:56:39;;;;;;;15.23;10.07;;;;;;;1.55;82.59;99782.00;6118345;23;20218;-84
2020/12/26 04:59:08;;;;;;;15.48;9.00;;;;;;;1.97;80.61;99780.25;6116355;23;20160;-83
2020/12/26 05:01:37;;;;;;;12.82;8.75;;;;;;;1.73;81.48;99778.13;6069865;23;20178;-86
2020/12/26 05:04:04;;;;;;;13.95;9.43;;;;;;;1.63;82.23;99784.50;6066045;23;20207;-84
2020/12/26 05:06:31;;;;;;;20.08;12.10;;;;;;;1.66;82.11;99790.63;6067666;23;20207;-84
2020/12/26 05:08:58;;;;;;;17.17;10.73;;;;;;;1.58;82.31;99792.53;6090215;23;21177;-84
2020/12/26 05:11:24;;;;;;;13.98;9.95;;;;;;;1.70;82.40;99797.63;6069597;23;20557;-83
2020/12/26 05:13:50;;;;;;;14.25;9.63;;;;;;;1.63;82.14;99792.44;6071423;23;20628;-83
2020/12/26 05:16:16;;;;;;;12.23;8.43;;;;;;;1.62;82.61;99788.91;6046502;23;20221;-83
2020/12/26 05:18:42;;;;;;;12.98;8.68;;;;;;;1.66;82.59;99789.72;6066630;23;20191;-81
2020/12/26 05:21:08;;;;;;;15.48;9.57;;;;;;;1.66;82.30;99780.00;6065749;23;20209;-83
2020/12/26 05:23:35;;;;;;;15.20;9.00;;;;;;;1.74;82.20;99780.72;6092294;23;20218;-84
2020/12/26 05:26:01;;;;;;;12.48;9.15;;;;;;;1.75;82.32;99771.84;6087647;23;20179;-85
2020/12/26 05:28:33;;;;;;;13.35;9.20;;;;;;;1.75;82.16;99773.66;6083946;23;20168;-85
2020/12/26 05:31:06;;;;;;;15.18;8.93;;;;;;;1.75;82.50;99769.22;6104232;23;20764;-84
2020/12/26 05:33:34;;;;;;;15.52;8.90;;;;;;;1.79;82.37;99770.00;6088601;23;20262;-83
2020/12/26 05:36:04;;;;;;;12.68;8.43;;;;;;;1.84;82.22;99774.34;6089303;23;20207;-83
2020/12/26 05:38:31;;;;;;;14.77;9.60;;;;;;;2.02;81.31;99768.66;6069164;23;20223;-85
2020/12/26 05:41:01;;;;;;;16.42;10.02;;;;;;;2.30;80.67;99769.78;6098452;23;20167;-85
2020/12/26 05:43:31;;;;;;;14.57;9.77;;;;;;;2.10;81.10;99766.69;6095813;23;20191;-84
2020/12/26 05:45:58;;;;;;;24.17;12.68;;;;;;;2.03;81.42;99762.44;6089280;23;20249;-84
2020/12/26 05:48:26;;;;;;;25.80;13.73;;;;;;;1.96;81.41;99765.25;6093084;23;20290;-84
2020/12/26 05:50:58;;;;;;;15.80;9.75;;;;;;;1.96;81.58;99768.78;6089525;23;20211;-83
2020/12/26 05:53:25;;;;;;;16.17;9.85;;;;;;;1.89;81.63;99776.91;6092298;23;20203;-84
2020/12/26 05:55:51;;;;;;;14.65;8.80;;;;;;;1.89;81.72;99769.81;6092589;23;20191;-83
2020/12/26 05:58:23;;;;;;;11.75;8.65;;;;;;;1.93;81.63;99774.13;6047482;23;20258;-84
2020/12/26 06:00:50;;;;;;;13.43;7.70;;;;;;;1.90;81.61;99779.53;6067456;23;20211;-84
2020/12/26 06:03:24;;;;;;;11.00;8.52;;;;;;;1.92;81.85;99777.69;6047833;23;20286;-84
2020/12/26 06:05:53;;;;;;;18.67;10.40;;;;;;;2.36;80.31;99774.06;6071991;23;20214;-85
2020/12/26 06:08:20;;;;;;;16.08;9.90;;;;;;;2.06;80.58;99774.78;6042745;23;20263;-85
2020/12/26 06:10:50;;;;;;;15.15;10.35;;;;;;;2.00;81.14;99775.75;6070042;23;20498;-85
2020/12/26 06:13:18;;;;;;;18.15;9.68;;;;;;;2.01;81.26;99780.13;6092343;23;20226;-85
2020/12/26 06:15:52;;;;;;;14.75;8.93;;;;;;;1.88;81.41;99788.41;6050497;23;20758;-85
2020/12/26 06:18:19;;;;;;;11.93;8.88;;;;;;;1.97;81.64;99790.84;6053715;23;20238;-84
2020/12/26 06:20:48;;;;;;;17.17;9.90;;;;;;;1.89;81.69;99784.84;6073575;23;20218;-85
2020/12/26 06:23:17;;;;;;;19.50;11.00;;;;;;;1.89;82.17;99783.09;6068524;23;20211;-86
2020/12/26 06:25:44;;;;;;;20.23;10.80;;;;;;;1.98;82.12;99785.53;6076005;23;20195;-85
2020/12/26 06:28:25;;;;;;;18.92;12.32;;;;;;;1.84;82.52;99784.94;6070192;22;20282;-86
2020/12/26 06:30:55;;;;;;;20.05;11.93;;;;;;;1.86;82.38;99788.44;6071114;23;20340;-86
2020/12/26 06:33:24;;;;;;;13.75;9.27;;;;;;;1.88;82.12;99788.41;6068375;23;20207;-86
2020/12/26 06:35:51;;;;;;;11.02;8.18;;;;;;;1.90;81.86;99784.81;6070498;23;20241;-85
2020/12/26 06:38:20;;;;;;;17.23;10.50;;;;;;;1.79;82.10;99780.63;6069519;23;20217;-86
2020/12/26 06:41:16;;;;;;;15.98;9.77;;;;;;;1.73;82.02;99771.03;6069446;23;20215;-83
2020/12/26 06:43:50;;;;;;;16.65;9.57;;;;;;;1.67;82.13;99765.00;6067802;23;20207;-85
2020/12/26 06:46:16;;;;;;;14.95;10.07;;;;;;;1.58;82.47;99762.50;6097339;23;20294;-85
2020/12/26 06:48:43;;;;;;;15.80;9.38;;;;;;;1.48;82.96;99759.16;6046598;23;20206;-84
2020/12/26 06:51:28;;;;;;;12.23;8.52;;;;;;;1.38;83.31;99756.72;6032848;23;20242;-85
2020/12/26 06:54:02;;;;;;;12.88;8.05;;;;;;;1.37;83.30;99760.28;6048225;23;20211;-85
2020/12/26 06:56:32;;;;;;;11.98;8.48;;;;;;;1.38;83.58;99759.38;6064508;23;20286;-83
2020/12/26 06:58:59;;;;;;;11.80;8.82;;;;;;;1.41;83.47;99761.97;6062159;23;20271;-85
2020/12/26 07:01:26;;;;;;;13.43;8.50;;;;;;;1.42;83.68;99758.44;6044057;23;20179;-84
2020/12/26 07:04:17;;;;;;;12.80;8.70;;;;;;;1.45;84.17;99753.94;6064181;23;20215;-84
2020/12/26 07:06:50;;;;;;;14.13;8.00;;;;;;;1.47;83.75;99746.81;6066954;23;20564;-85
2020/12/26 07:09:18;;;;;;;12.13;8.90;;;;;;;1.48;83.91;99759.16;6057394;23;20211;-86
2020/12/26 07:11:49;;;;;;;15.23;8.52;;;;;;;1.46;84.14;99758.34;6038260;23;20203;-83
2020/12/26 07:14:30;;;;;;;14.30;9.38;;;;;;;1.49;84.16;99758.25;6041233;23;20227;-85
2020/12/26 07:16:57;;;;;;;16.27;9.05;;;;;;;1.55;84.12;99757.28;6042679;23;20544;-84
2020/12/26 07:19:27;;;;;;;11.80;8.27;;;;;;;1.65;83.82;99765.00;6043505;23;20172;-85
2020/12/26 07:22:00;;;;;;;11.93;9.00;;;;;;;1.79;83.41;99765.59;6038751;23;20208;-85
2020/12/26 07:24:39;;;;;;;12.82;9.55;;;;;;;1.72;83.36;99760.44;6040403;23;20219;-85
2020/12/26 07:27:19;;;;;;;12.43;8.50;;;;;;;1.62;83.59;99761.56;6090643;23;20204;-84
2020/12/26 07:30:05;;;;;;;13.70;9.43;;;;;;;1.54;83.84;99774.09;6022311;23;20207;-83
2020/12/26 07:32:43;;;;;;;13.40;8.93;;;;;;;1.57;84.21;99772.25;6098777;23;20207;-85
2020/12/26 07:35:14;;;;;;;17.15;10.45;;;;;;;1.56;83.78;99772.28;6044725;23;20160;-83
2020/12/26 07:38:03;;;;;;;16.05;10.05;;;;;;;1.46;84.19;99766.28;6075546;23;20163;-85
2020/12/26 07:40:41;;;;;;;14.15;10.43;;;;;;;1.52;84.02;99762.63;6096139;23;20206;-85
2020/12/26 07:43:13;;;;;;;15.43;10.70;;;;;;;1.54;84.86;99769.66;6082468;23;20211;-85
2020/12/26 07:45:42;;;;;;;15.40;9.65;;;;;;;1.90;83.27;99771.56;6106620;23;20211;-85
2020/12/26 07:48:09;;;;;;;15.07;9.63;;;;;;;2.02;82.69;99773.97;6046172;23;20207;-86
2020/12/26 07:50:40;;;;;;;17.23;10.57;;;;;;;2.19;82.25;99782.41;6074750;23;20226;-86
2020/12/26 07:53:10;;;;;;;14.85;10.65;;;;;;;2.27;81.28;99777.81;6097022;23;20514;-85
2020/12/26 07:55:37;;;;;;;12.98;9.20;;;;;;;2.43;80.88;99781.88;6096825;23;20542;-85
2020/12/26 07:58:06;;;;;;;16.38;10.27;;;;;;;2.37;80.78;99789.97;6073542;23;20217;-85
2020/12/26 08:00:38;;;;;;;15.40;10.85;;;;;;;2.32;81.24;99798.94;6049067;23;20542;-84
2020/12/26 08:03:07;;;;;;;15.20;10.40;;;;;;;2.25;81.61;99797.34;6099619;23;20320;-85
2020/12/26 08:05:35;;;;;;;16.08;10.45;;;;;;;2.14;81.89;99794.03;6077089;23;20203;-85
2020/12/26 08:08:15;;;;;;;17.67;11.43;;;;;;;2.22;81.72;99790.31;6098107;23;20179;-85
2020/12/26 08:10:42;;;;;;;15.00;11.00;;;;;;;2.23;81.88;99794.72;6053562;23;20167;-85
2020/12/26 08:13:15;;;;;;;24.50;11.93;;;;;;;2.19;81.58;99792.16;6097381;23;20207;-85
2020/12/26 08:15:43;;;;;;;15.20;10.48;;;;;;;2.29;81.24;99785.72;6050141;23;20597;-86
2020/12/26 08:18:09;;;;;;;15.40;10.38;;;;;;;2.30;81.42;99791.00;6067008;23;20295;-85
2020/12/26 08:20:36;;;;;;;17.35;11.20;;;;;;;2.29;81.52;99791.03;6068243;23;20214;-85
2020/12/26 08:23:03;;;;;;;18.67;11.50;;;;;;;2.27;81.92;99793.75;6091208;23;20275;-84
2020/12/26 08:25:33;;;;;;;20.63;11.65;;;;;;;2.26;81.58;99789.31;6076798;23;20179;-86
2020/12/26 08:27:59;;;;;;;16.45;10.43;;;;;;;2.28;81.65;99791.94;6046012;23;20203;-84
2020/12/26 08:30:32;;;;;;;16.95;10.40;;;;;;;2.36;81.65;99788.22;6048877;23;20265;-86
2020/12/26 08:33:27;;;;;;;16.77;11.13;;;;;;;2.34;81.42;99787.41;6070276;23;20211;-85
2020/12/26 08:36:12;;;;;;;20.02;11.40;;;;;;;2.30;81.85;99793.66;6043549;23;20243;-85
2020/12/26 08:38:43;;;;;;;18.65;12.13;;;;;;;2.30;81.54;99801.63;6041859;23;20218;-85
2020/12/26 08:41:11;;;;;;;19.35;11.25;;;;;;;2.31;81.27;99803.38;6074980;23;20220;-84
2020/12/26 08:43:39;;;;;;;17.95;11.40;;;;;;;2.30;81.92;99809.59;6084261;23;20196;-86
2020/12/26 08:46:17;;;;;;;21.33;12.70;;;;;;;2.27;81.46;99816.75;6046528;23;20229;-84
2020/12/26 08:48:44;;;;;;;20.33;12.13;;;;;;;2.28;81.95;99810.53;6071716;23;20723;-85
2020/12/26 08:51:17;;;;;;;21.63;12.60;;;;;;;2.26;81.97;99815.84;6057261;23;20664;-85
2020/12/26 08:53:46;;;;;;;18.70;11.65;;;;;;;2.25;82.17;99806.16;6076197;23;20203;-84
2020/12/26 08:56:12;;;;;;;19.13;11.40;;;;;;;2.29;82.16;99805.19;6048076;23;20222;-84
2020/12/26 08:58:47;;;;;;;20.35;12.63;;;;;;;2.25;82.19;99808.81;6048764;23;20692;-83
2020/12/26 09:01:15;;;;;;;20.65;12.27;;;;;;;2.29;82.22;99815.81;6047162;23;20211;-84
2020/12/26 09:03:48;;;;;;;20.45;12.90;;;;;;;2.51;81.80;99817.06;6071886;23;20215;-82
2020/12/26 09:06:15;;;;;;;20.27;11.70;;;;;;;2.76;81.35;99815.59;6129068;23;20207;-83
2020/12/26 09:08:41;;;;;;;20.10;12.57;;;;;;;2.92;80.22;99824.94;6076949;23;20206;-83
2020/12/26 09:11:12;;;;;;;16.20;11.98;;;;;;;3.06;79.03;99830.78;6098726;23;20506;-84
2020/12/26 09:13:39;;;;;;;18.42;11.27;;;;;;;3.07;78.59;99835.19;6051723;23;20171;-85
2020/12/26 09:16:12;;;;;;;22.30;13.57;;;;;;;3.13;78.60;99837.69;6074304;23;20211;-84
2020/12/26 09:18:50;;;;;;;25.30;12.68;;;;;;;3.29;78.36;99840.84;6043962;23;20202;-84
2020/12/26 09:21:21;;;;;;;19.35;11.70;;;;;;;3.36;77.29;99835.34;6093697;23;20203;-84
2020/12/26 09:23:48;;;;;;;22.25;13.68;;;;;;;3.48;77.54;99834.16;6080009;23;20691;-83
2020/12/26 09:26:16;;;;;;;20.90;11.35;;;;;;;3.55;76.84;99835.72;6114649;23;20203;-83
2020/12/26 09:28:57;;;;;;;20.40;11.73;;;;;;;3.66;76.44;99841.63;6121330;23;20227;-83
2020/12/26 09:31:26;;;;;;;22.20;12.73;;;;;;;3.57;76.44;99836.56;6095569;23;20211;-82
2020/12/26 09:33:54;;;;;;;18.65;12.15;;;;;;;3.73;76.35;99836.09;6066760;23;20206;-84
2020/12/26 09:36:24;;;;;;;18.13;11.73;;;;;;;3.80;75.93;99843.00;6053255;23;20242;-84
2020/12/26 09:38:51;;;;;;;16.95;12.32;;;;;;;3.78;76.23;99836.84;6037052;23;20239;-82
2020/12/26 09:41:25;;;;;;;19.20;12.85;;;;;;;3.74;75.86;99835.22;6061434;23;20191;-84
2020/12/26 09:43:53;;;;;;;19.63;11.75;;;;;;;3.91;75.53;99845.38;6090071;23;20219;-85
2020/12/26 09:46:21;;;;;;;17.90;12.10;;;;;;;4.04;75.21;99841.47;6085350;23;20200;-84
2020/12/26 09:48:48;;;;;;;18.25;12.27;;;;;;;4.06;75.01;99832.53;6063663;23;20238;-83
2020/12/26 09:51:16;;;;;;;20.13;12.85;;;;;;;4.04;74.85;99834.34;6096618;23;20204;-83
2020/12/26 09:53:48;;;;;;;22.45;12.45;;;;;;;4.09;74.60;99840.41;6066213;22;20207;-83
2020/12/26 09:56:14;;;;;;;18.45;12.25;;;;;;;3.89;75.16;99849.84;6092725;23;20215;-80
2020/12/26 09:58:42;;;;;;;21.88;12.45;;;;;;;3.75;75.55;99844.94;6099195;23;20156;-82
2020/12/26 10:01:14;;;;;;;19.45;12.00;;;;;;;3.45;76.04;99837.75;6064941;23;20192;-82
2020/12/26 10:03:42;;;;;;;22.20;13.55;;;;;;;3.55;76.38;99844.59;6105567;23;20203;-82
2020/12/26 10:06:17;;;;;;;18.85;12.82;;;;;;;3.65;76.63;99838.09;6069952;23;20212;-84
2020/12/26 10:08:44;;;;;;;22.63;13.35;;;;;;;3.69;76.22;99831.78;6076776;23;20207;-84
2020/12/26 10:11:12;;;;;;;20.45;13.85;;;;;;;3.74;76.05;99829.88;6078454;23;20171;-84
2020/12/26 10:13:38;;;;;;;22.65;14.60;;;;;;;3.75;75.92;99830.75;6089676;23;20169;-84
2020/12/26 10:16:06;;;;;;;20.80;13.45;;;;;;;3.77;75.77;99828.91;6089410;23;20295;-84
2020/12/26 10:18:32;;;;;;;22.83;14.68;;;;;;;3.70;75.75;99828.22;6057744;23;20223;-85
2020/12/26 10:20:58;;;;;;;19.35;13.25;;;;;;;3.66;75.75;99831.84;6097447;23;20234;-84
2020/12/26 10:23:24;;;;;;;19.75;12.63;;;;;;;3.80;75.83;99813.72;6070110;23;20238;-83
2020/12/26 10:25:52;;;;;;;23.17;13.13;;;;;;;3.88;75.48;99810.88;6119326;23;20202;-83
2020/12/26 10:28:18;;;;;;;20.15;14.52;;;;;;;3.69;76.05;99806.97;6088140;23;20204;-84
2020/12/26 10:30:47;;;;;;;21.75;13.55;;;;;;;3.73;76.03;99798.84;6073559;23;20230;-83
2020/12/26 10:33:13;;;;;;;22.60;13.85;;;;;;;3.83;75.72;99797.69;6058639;23;20203;-84
2020/12/26 10:35:40;;;;;;;21.92;12.88;;;;;;;3.83;75.56;99803.03;6082407;23;20217;-84
2020/12/26 10:38:06;;;;;;;22.52;13.07;;;;;;;3.84;75.12;99802.09;6050060;23;20157;-80
2020/12/26 10:40:33;;;;;;;23.27;15.20;;;;;;;3.87;75.54;99795.81;6100987;23;20156;-81
2020/12/26 10:42:59;;;;;;;23.00;14.05;;;;;;;3.86;75.22;99789.63;6072766;23;20247;-82
2020/12/26 10:45:25;;;;;;;24.98;15.35;;;;;;;3.97;74.86;99784.88;6097718;23;20251;-81
2020/12/26 10:47:51;;;;;;;21.90;14.80;;;;;;;4.08;74.90;99785.44;6066784;23;20216;-84
2020/12/26 10:50:17;;;;;;;21.70;13.93;;;;;;;4.23;74.37;99781.47;6097998;23;20187;-82
2020/12/26 10:52:46;;;;;;;23.48;14.27;;;;;;;4.26;73.91;99774.25;6120705;23;20214;-82
2020/12/26 10:55:17;;;;;;;21.67;14.13;;;;;;;4.44;73.42;99776.31;6092923;23;20188;-85
2020/12/26 10:57:43;;;;;;;23.63;14.45;;;;;;;4.49;73.10;99777.06;6082054;23;20192;-83
2020/12/26 11:00:11;;;;;;;20.10;13.85;;;;;;;4.73;72.29;99778.97;6091619;23;20212;-82
2020/12/26 11:02:37;;;;;;;20.83;13.70;;;;;;;4.69;72.59;99774.66;6076559;23;20226;-81
2020/12/26 11:05:05;;;;;;;21.85;14.00;;;;;;;4.72;72.09;99769.25;6095222;23;20156;-83
2020/12/26 11:07:35;;;;;;;21.48;12.90;;;;;;;4.65;72.10;99765.03;6075593;23;20178;-83
2020/12/26 11:10:01;;;;;;;23.02;14.40;;;;;;;4.44;72.41;99765.69;6088678;23;20248;-82
2020/12/26 11:12:27;;;;;;;22.55;12.90;;;;;;;4.42;72.49;99772.84;6070183;23;20203;-83
2020/12/26 11:14:53;;;;;;;19.33;13.60;;;;;;;4.19;73.25;99762.06;6103583;23;20247;-82
2020/12/26 11:17:19;;;;;;;19.15;12.80;;;;;;;4.24;73.96;99761.91;6043425;23;20255;-82
2020/12/26 11:19:45;;;;;;;24.90;16.00;;;;;;;4.19;73.83;99759.38;6044414;23;20219;-84
2020/12/26 11:22:11;;;;;;;22.63;13.93;;;;;;;4.28;74.11;99752.88;6044604;23;20188;-82
2020/12/26 11:24:37;;;;;;;24.15;13.68;;;;;;;4.28;73.80;99758.22;6106194;23;20245;-83
2020/12/26 11:27:03;;;;;;;22.25;13.05;;;;;;;4.26;73.96;99763.59;6077384;23;20241;-82
2020/12/26 11:29:31;;;;;;;22.30;12.75;;;;;;;4.15;74.36;99757.72;6096829;23;20219;-83
2020/12/26 11:31:58;;;;;;;23.50;14.23;;;;;;;4.10;74.83;99754.31;6120574;23;20171;-82
2020/12/26 11:34:24;;;;;;;21.55;12.63;;;;;;;4.04;75.16;99758.97;6095618;23;20348;-83
2020/12/26 11:36:51;;;;;;;24.05;13.85;;;;;;;4.03;75.14;99755.44;6069270;23;20227;-83